createdAt,value
2022-12-19T00:01:58.842Z,10.45
2022-12-19T00:07:00.928Z,10.48
2022-12-19T00:12:02.687Z,10.38
2022-12-19T00:17:04.438Z,10.02
2022-12-19T00:22:11.012Z,11.13
2022-12-19T00:27:12.987Z,9.88
2022-12-19T00:32:14.954Z,9.67
2022-12-19T00:37:18.337Z,10.13
2022-12-19T00:42:20.102Z,11.35
2022-12-19T00:47:21.832Z,11.50
2022-12-19T00:52:23.494Z,11.57
2022-12-19T00:57:25.234Z,10.30
2022-12-19T01:02:27.104Z,11.70
2022-12-19T01:07:28.883Z,10.82
2022-12-19T01:12:45.937Z,10.77
2022-12-19T01:17:49.220Z,10.30
2022-12-19T01:22:50.972Z,10.88
2022-12-19T01:27:54.867Z,11.13
2022-12-19T01:32:57.941Z,11.18
2022-12-19T01:38:08.166Z,11.48
2022-12-19T01:43:14.834Z,10.82
2022-12-19T01:48:25.838Z,10.80
2022-12-19T01:53:34.588Z,10.45
2022-12-19T01:58:41.524Z,9.52
2022-12-19T02:03:44.366Z,9.13
2022-12-19T02:08:48.227Z,8.15
2022-12-19T02:13:50.046Z,9.23
2022-12-19T02:19:04.338Z,8.15
2022-12-19T02:24:40.282Z,8.02
2022-12-19T02:29:44.912Z,7.60
2022-12-19T02:35:20.561Z,8.07
2022-12-19T02:40:29.460Z,7.95
2022-12-19T02:45:35.517Z,8.07
2022-12-19T02:50:41.238Z,7.40
2022-12-19T02:55:50.617Z,6.43
2022-12-19T03:01:10.759Z,6.07
2022-12-19T03:06:24.123Z,7.03
2022-12-19T03:11:30.555Z,6.47
2022-12-19T03:16:36.322Z,6.28
2022-12-19T03:21:44.845Z,7.72
2022-12-19T03:26:57.821Z,7.85
2022-12-19T03:32:03.121Z,8.23
2022-12-19T03:37:07.979Z,8.05
2022-12-19T03:42:30.185Z,7.97
2022-12-19T03:47:41.581Z,7.60
2022-12-19T03:53:13.228Z,8.30
2022-12-19T03:58:32.859Z,7.45
2022-12-19T04:03:35.630Z,9.13
2022-12-19T04:08:38.186Z,8.15
2022-12-19T04:13:49.883Z,8.35
2022-12-19T04:18:58.290Z,7.32
2022-12-19T04:24:10.696Z,8.55
2022-12-19T04:29:14.570Z,9.15
2022-12-19T04:34:21.425Z,9.50
2022-12-19T04:39:23.343Z,8.90
2022-12-19T04:44:26.531Z,9.68
2022-12-19T04:49:28.229Z,8.93
2022-12-19T04:54:29.903Z,8.48
2022-12-19T04:59:31.770Z,9.52
2022-12-19T05:04:33.458Z,8.27
2022-12-19T05:09:37.937Z,8.80
2022-12-19T05:14:39.644Z,8.63
2022-12-19T05:19:41.356Z,8.50
2022-12-19T05:24:43.049Z,9.10
2022-12-19T05:29:44.731Z,9.20
2022-12-19T05:34:46.570Z,9.52
2022-12-19T05:39:48.267Z,8.93
2022-12-19T05:44:49.956Z,8.98
2022-12-19T05:49:51.634Z,9.60
2022-12-19T05:54:53.352Z,9.10
2022-12-19T05:59:55.011Z,9.25
2022-12-19T06:04:56.695Z,8.65
2022-12-19T06:09:58.522Z,9.05
2022-12-19T06:15:00.278Z,9.07
2022-12-19T06:20:01.985Z,8.05
2022-12-19T06:25:03.940Z,9.70
2022-12-19T06:30:06.428Z,8.48
2022-12-19T06:35:10.270Z,9.38
2022-12-19T06:40:32.212Z,9.65
2022-12-19T06:45:34.097Z,9.38
2022-12-19T06:50:35.989Z,9.60
2022-12-19T06:55:37.963Z,9.68
2022-12-19T07:00:39.700Z,9.43
2022-12-19T07:05:41.956Z,10.13
2022-12-19T07:10:43.741Z,9.82
2022-12-19T07:15:45.525Z,9.48
2022-12-19T07:20:47.276Z,9.50
2022-12-19T07:25:49.133Z,10.05
2022-12-19T07:30:50.876Z,10.15
2022-12-19T07:35:52.572Z,9.10
2022-12-19T07:40:54.304Z,10.05
2022-12-19T07:45:56.761Z,10.65
2022-12-19T07:50:58.467Z,9.93
2022-12-19T07:56:00.177Z,10.23
2022-12-19T08:01:07.451Z,10.65
2022-12-19T08:06:10.143Z,9.75
2022-12-19T08:11:17.043Z,10.02
2022-12-19T08:16:18.779Z,10.05
2022-12-19T08:21:20.571Z,10.30
2022-12-19T08:26:26.227Z,10.50
2022-12-19T08:31:28.914Z,10.10
2022-12-19T08:36:30.618Z,10.70
2022-12-19T08:41:32.326Z,10.18
2022-12-19T08:46:34.079Z,11.60
2022-12-19T08:51:35.839Z,10.60
2022-12-19T08:56:37.785Z,10.63
2022-12-19T09:01:43.726Z,10.68
2022-12-19T09:06:45.544Z,10.82
2022-12-19T09:11:48.473Z,11.15
2022-12-19T09:16:50.283Z,11.43
2022-12-19T09:21:52.011Z,10.95
2022-12-19T09:26:53.839Z,11.82
2022-12-19T09:31:57.047Z,11.07
2022-12-19T09:36:58.954Z,11.93
2022-12-19T09:42:13.410Z,12.07
2022-12-19T09:47:34.087Z,10.73
2022-12-19T09:52:40.557Z,11.75
2022-12-19T09:58:08.008Z,11.30
2022-12-19T10:03:17.376Z,12.02
2022-12-19T10:08:25.571Z,10.43
2022-12-19T10:14:07.175Z,12.38
2022-12-19T10:19:13.331Z,11.27
2022-12-19T10:24:55.268Z,11.23
2022-12-19T10:30:21.639Z,11.45
2022-12-19T10:35:24.750Z,12.55
2022-12-19T10:40:37.225Z,11.00
2022-12-19T10:45:52.394Z,12.27
2022-12-19T10:50:54.224Z,11.18
2022-12-19T10:56:02.507Z,11.55
2022-12-19T11:01:28.860Z,12.35
2022-12-19T11:07:01.476Z,11.77
2022-12-19T11:15:24.843Z,12.50
2022-12-19T11:27:58.039Z,11.90
2022-12-19T11:29:34.321Z,11.40
2022-12-19T11:29:39.638Z,12.27
2022-12-19T11:34:04.097Z,11.38
2022-12-19T11:39:16.863Z,12.60
2022-12-19T11:44:30.760Z,13.68
2022-12-19T11:49:38.677Z,13.02
2022-12-19T11:55:03.689Z,12.43
2022-12-19T12:00:06.397Z,12.88
2022-12-19T12:05:26.765Z,12.57
2022-12-19T12:18:15.382Z,12.70
2022-12-19T12:29:48.803Z,11.70
2022-12-19T12:31:32.537Z,12.45
2022-12-19T12:31:51.539Z,13.30
2022-12-19T12:33:08.795Z,13.02
2022-12-19T12:44:08.986Z,12.00
2022-12-19T12:49:34.734Z,12.40
2022-12-19T12:54:42.959Z,12.25
2022-12-19T12:59:47.277Z,11.88
2022-12-19T13:04:58.798Z,11.45
2022-12-19T13:10:24.972Z,12.43
2022-12-19T13:15:29.900Z,12.90
2022-12-19T13:20:40.251Z,11.80
2022-12-19T13:25:41.982Z,12.05
2022-12-19T13:31:19.947Z,12.48
2022-12-19T13:39:50.860Z,12.07
2022-12-19T13:42:33.737Z,12.02
2022-12-19T13:47:39.541Z,12.82
2022-12-19T13:52:41.240Z,12.90
2022-12-19T13:57:43.046Z,14.27
2022-12-19T14:02:52.964Z,13.25
2022-12-19T14:07:54.974Z,12.38
2022-12-19T14:13:57.406Z,13.50
2022-12-19T14:18:44.177Z,12.45
2022-12-19T14:23:48.307Z,12.70
2022-12-19T14:29:16.223Z,13.60
2022-12-19T14:35:23.766Z,12.90
2022-12-19T14:40:06.710Z,14.30
2022-12-19T14:54:02.602Z,13.05
2022-12-19T14:54:16.266Z,13.70
2022-12-19T14:57:02.899Z,13.10
2022-12-19T15:02:08.039Z,12.55
2022-12-19T15:07:21.098Z,14.70
2022-12-19T15:14:04.035Z,12.77
2022-12-19T15:18:39.289Z,13.48
2022-12-19T15:23:43.419Z,14.23
2022-12-19T15:28:49.985Z,14.23
2022-12-19T15:34:33.766Z,13.60
2022-12-19T15:39:15.160Z,13.25
2022-12-19T15:44:19.141Z,13.70
2022-12-19T15:49:22.262Z,13.65
2022-12-19T15:59:46.025Z,14.90
2022-12-19T16:05:03.863Z,13.73
2022-12-19T16:10:07.203Z,14.13
2022-12-19T16:15:27.362Z,13.20
2022-12-19T16:20:36.399Z,12.75
2022-12-19T16:25:43.604Z,12.90
2022-12-19T16:30:45.972Z,13.60
2022-12-19T16:36:07.562Z,14.20
2022-12-19T16:41:19.254Z,13.68
2022-12-19T16:46:23.712Z,14.10
2022-12-19T16:51:27.589Z,15.48
2022-12-19T16:56:51.314Z,13.10
2022-12-19T17:01:53.560Z,13.35
2022-12-19T17:06:56.076Z,13.48
2022-12-19T17:12:00.887Z,13.02
2022-12-19T17:17:02.729Z,13.40
2022-12-19T17:22:14.633Z,13.30
2022-12-19T17:27:17.591Z,12.50
2022-12-19T17:32:24.064Z,13.32
2022-12-19T17:37:26.356Z,13.55
2022-12-19T17:42:33.618Z,13.73
2022-12-19T17:47:39.097Z,13.88
2022-12-19T17:52:40.894Z,13.75
2022-12-19T17:57:42.769Z,13.25
2022-12-19T18:02:46.046Z,13.05
2022-12-19T18:07:52.344Z,13.10
2022-12-19T18:12:54.890Z,13.65
2022-12-19T18:17:57.662Z,13.05
2022-12-19T18:23:49.255Z,12.15
2022-12-19T18:28:51.005Z,13.32
2022-12-19T18:33:54.681Z,13.63
2022-12-19T18:38:57.305Z,12.98
2022-12-19T18:43:59.200Z,13.23
2022-12-19T18:49:00.934Z,12.85
2022-12-19T18:54:02.684Z,13.20
2022-12-19T18:59:04.585Z,12.75
2022-12-19T19:04:07.067Z,13.10
2022-12-19T19:09:16.426Z,12.98
2022-12-19T19:14:18.216Z,12.48
2022-12-19T19:19:19.982Z,11.93
2022-12-19T19:24:23.244Z,12.65
2022-12-19T19:29:24.962Z,11.75
2022-12-19T19:34:31.279Z,12.13
2022-12-19T19:39:34.358Z,12.07
2022-12-19T19:44:36.202Z,11.85
2022-12-19T19:49:38.146Z,11.80
2022-12-19T19:54:39.910Z,12.38
2022-12-19T19:59:41.767Z,11.43
2022-12-19T20:04:43.738Z,11.77
2022-12-19T20:09:46.152Z,11.90
2022-12-19T20:14:47.954Z,11.18
2022-12-19T20:19:49.731Z,11.43
2022-12-19T20:24:51.620Z,11.10
2022-12-19T20:29:55.411Z,10.73
2022-12-19T20:34:57.478Z,10.40
2022-12-19T20:39:59.221Z,10.90
2022-12-19T20:45:02.669Z,11.40
2022-12-19T20:50:18.399Z,11.43
2022-12-19T20:55:33.844Z,11.05
2022-12-19T21:00:35.752Z,10.40
2022-12-19T21:05:37.470Z,10.63
2022-12-19T21:10:39.226Z,10.40
2022-12-19T21:15:41.767Z,10.23
2022-12-19T21:20:44.320Z,10.45
2022-12-19T21:25:46.472Z,10.05
2022-12-19T21:30:56.615Z,10.05
2022-12-19T21:36:05.096Z,9.30
2022-12-19T21:41:08.333Z,10.60
2022-12-19T21:46:12.854Z,10.05
2022-12-19T21:51:16.648Z,10.15
2022-12-19T21:56:32.513Z,10.15
2022-12-19T22:01:35.006Z,10.13
2022-12-19T22:07:07.422Z,9.50
2022-12-19T22:13:08.299Z,9.32
2022-12-19T22:18:22.190Z,8.85
2022-12-19T22:23:34.010Z,9.23
2022-12-19T22:29:02.789Z,10.43
2022-12-19T22:34:19.828Z,9.23
2022-12-19T22:39:35.277Z,10.10
2022-12-19T22:45:04.086Z,8.82
2022-12-19T22:50:11.320Z,9.73
2022-12-19T22:55:19.382Z,9.20
2022-12-19T23:00:33.831Z,9.30
2022-12-19T23:05:42.711Z,9.15
2022-12-19T23:10:56.935Z,9.30
2022-12-19T23:15:58.974Z,9.02
2022-12-19T23:21:11.931Z,8.70
2022-12-19T23:26:22.935Z,9.52
2022-12-19T23:31:25.590Z,8.57
2022-12-19T23:37:00.991Z,9.13
2022-12-19T23:41:49.983Z,8.23
2022-12-19T23:46:51.915Z,8.50
2022-12-19T23:51:53.639Z,8.55
2022-12-19T23:56:55.313Z,9.05
